sensor_id;sensor_type;location;lat;lon;timestamp;P1;durP1;ratioP1;P2;durP2;ratioP2
43519;SDS011;46848;51.980;5.918;2022-07-22T00:02:06;6.72;;;2.60;;
43519;SDS011;46848;51.980;5.918;2022-07-22T00:04:32;6.80;;;2.10;;
43519;SDS011;46848;51.980;5.918;2022-07-22T00:06:57;7.25;;;2.50;;
43519;SDS011;46848;51.980;5.918;2022-07-22T00:09:23;8.93;;;3.47;;
43519;SDS011;46848;51.980;5.918;2022-07-22T00:11:49;11.98;;;4.68;;
43519;SDS011;46848;51.980;5.918;2022-07-22T00:14:15;8.55;;;4.13;;
43519;SDS011;46848;51.980;5.918;2022-07-22T00:16:40;11.07;;;5.32;;
43519;SDS011;46848;51.980;5.918;2022-07-22T00:19:06;8.75;;;5.05;;
43519;SDS011;46848;51.980;5.918;2022-07-22T00:21:32;11.05;;;5.05;;
43519;SDS011;46848;51.980;5.918;2022-07-22T00:23:58;12.68;;;4.85;;
43519;SDS011;46848;51.980;5.918;2022-07-22T00:26:24;9.50;;;4.25;;
43519;SDS011;46848;51.980;5.918;2022-07-22T00:28:51;8.98;;;4.55;;
43519;SDS011;46848;51.980;5.918;2022-07-22T00:31:17;10.82;;;3.78;;
43519;SDS011;46848;51.980;5.918;2022-07-22T00:33:42;8.02;;;3.63;;
43519;SDS011;46848;51.980;5.918;2022-07-22T00:36:08;7.68;;;4.32;;
43519;SDS011;46848;51.980;5.918;2022-07-22T00:38:34;7.68;;;3.83;;
43519;SDS011;46848;51.980;5.918;2022-07-22T00:41:00;8.48;;;3.10;;
43519;SDS011;46848;51.980;5.918;2022-07-22T00:43:25;7.40;;;4.25;;
43519;SDS011;46848;51.980;5.918;2022-07-22T00:45:52;7.57;;;2.80;;
43519;SDS011;46848;51.980;5.918;2022-07-22T00:48:18;5.57;;;2.15;;
43519;SDS011;46848;51.980;5.918;2022-07-22T00:50:43;7.93;;;2.30;;
43519;SDS011;46848;51.980;5.918;2022-07-22T00:53:10;7.00;;;1.92;;
43519;SDS011;46848;51.980;5.918;2022-07-22T00:55:36;6.88;;;2.08;;
43519;SDS011;46848;51.980;5.918;2022-07-22T00:58:03;10.75;;;3.97;;
43519;SDS011;46848;51.980;5.918;2022-07-22T01:00:29;8.13;;;2.80;;
43519;SDS011;46848;51.980;5.918;2022-07-22T01:02:55;6.57;;;2.30;;
43519;SDS011;46848;51.980;5.918;2022-07-22T01:05:20;10.90;;;2.65;;
43519;SDS011;46848;51.980;5.918;2022-07-22T01:07:46;7.40;;;2.20;;
43519;SDS011;46848;51.980;5.918;2022-07-22T01:10:12;6.50;;;2.08;;
43519;SDS011;46848;51.980;5.918;2022-07-22T01:12:39;6.80;;;1.95;;
43519;SDS011;46848;51.980;5.918;2022-07-22T01:15:05;7.55;;;1.80;;
43519;SDS011;46848;51.980;5.918;2022-07-22T01:17:31;5.18;;;1.58;;
43519;SDS011;46848;51.980;5.918;2022-07-22T01:19:59;7.65;;;1.67;;
43519;SDS011;46848;51.980;5.918;2022-07-22T01:22:32;4.45;;;1.50;;
43519;SDS011;46848;51.980;5.918;2022-07-22T01:24:58;7.00;;;1.80;;
43519;SDS011;46848;51.980;5.918;2022-07-22T01:27:24;5.50;;;1.92;;
43519;SDS011;46848;51.980;5.918;2022-07-22T01:29:50;6.30;;;1.88;;
43519;SDS011;46848;51.980;5.918;2022-07-22T01:32:15;7.97;;;1.65;;
43519;SDS011;46848;51.980;5.918;2022-07-22T01:34:41;5.43;;;1.70;;
43519;SDS011;46848;51.980;5.918;2022-07-22T01:37:08;5.05;;;1.80;;
43519;SDS011;46848;51.980;5.918;2022-07-22T01:39:34;4.93;;;2.20;;
43519;SDS011;46848;51.980;5.918;2022-07-22T01:42:00;7.20;;;2.13;;
43519;SDS011;46848;51.980;5.918;2022-07-22T01:44:25;6.40;;;1.80;;
43519;SDS011;46848;51.980;5.918;2022-07-22T01:46:51;7.07;;;2.78;;
43519;SDS011;46848;51.980;5.918;2022-07-22T01:49:18;9.38;;;4.18;;
43519;SDS011;46848;51.980;5.918;2022-07-22T01:51:44;8.10;;;3.88;;
43519;SDS011;46848;51.980;5.918;2022-07-22T01:54:10;5.78;;;2.60;;
43519;SDS011;46848;51.980;5.918;2022-07-22T01:56:36;6.40;;;2.88;;
43519;SDS011;46848;51.980;5.918;2022-07-22T01:59:01;8.18;;;2.67;;
43519;SDS011;46848;51.980;5.918;2022-07-22T02:01:27;6.93;;;3.33;;
43519;SDS011;46848;51.980;5.918;2022-07-22T02:03:53;14.02;;;6.55;;
43519;SDS011;46848;51.980;5.918;2022-07-22T02:06:19;9.45;;;4.82;;
43519;SDS011;46848;51.980;5.918;2022-07-22T02:08:44;10.18;;;4.07;;
43519;SDS011;46848;51.980;5.918;2022-07-22T02:11:10;8.73;;;4.15;;
43519;SDS011;46848;51.980;5.918;2022-07-22T02:13:35;9.85;;;4.68;;
43519;SDS011;46848;51.980;5.918;2022-07-22T02:16:01;9.73;;;3.15;;
43519;SDS011;46848;51.980;5.918;2022-07-22T02:18:27;7.53;;;2.83;;
43519;SDS011;46848;51.980;5.918;2022-07-22T02:20:53;9.30;;;2.90;;
43519;SDS011;46848;51.980;5.918;2022-07-22T02:23:18;6.00;;;2.20;;
43519;SDS011;46848;51.980;5.918;2022-07-22T02:25:44;5.75;;;2.30;;
43519;SDS011;46848;51.980;5.918;2022-07-22T02:28:10;8.23;;;2.03;;
43519;SDS011;46848;51.980;5.918;2022-07-22T02:30:36;7.20;;;2.00;;
43519;SDS011;46848;51.980;5.918;2022-07-22T02:33:02;8.95;;;5.03;;
43519;SDS011;46848;51.980;5.918;2022-07-22T02:35:27;11.68;;;5.22;;
43519;SDS011;46848;51.980;5.918;2022-07-22T02:37:53;6.85;;;3.13;;
43519;SDS011;46848;51.980;5.918;2022-07-22T02:40:19;8.18;;;3.60;;
43519;SDS011;46848;51.980;5.918;2022-07-22T02:42:44;7.65;;;3.00;;
43519;SDS011;46848;51.980;5.918;2022-07-22T02:45:10;6.88;;;2.90;;
43519;SDS011;46848;51.980;5.918;2022-07-22T02:47:44;8.40;;;3.20;;
43519;SDS011;46848;51.980;5.918;2022-07-22T02:50:11;9.35;;;3.30;;
43519;SDS011;46848;51.980;5.918;2022-07-22T02:52:37;7.07;;;2.70;;
43519;SDS011;46848;51.980;5.918;2022-07-22T02:55:02;7.60;;;3.33;;
43519;SDS011;46848;51.980;5.918;2022-07-22T02:57:30;7.72;;;2.75;;
43519;SDS011;46848;51.980;5.918;2022-07-22T02:59:56;5.03;;;2.70;;
43519;SDS011;46848;51.980;5.918;2022-07-22T03:02:21;10.48;;;3.65;;
43519;SDS011;46848;51.980;5.918;2022-07-22T03:04:47;9.10;;;3.75;;
43519;SDS011;46848;51.980;5.918;2022-07-22T03:07:13;8.57;;;3.75;;
43519;SDS011;46848;51.980;5.918;2022-07-22T03:09:38;8.43;;;3.90;;
43519;SDS011;46848;51.980;5.918;2022-07-22T03:12:04;7.60;;;3.47;;
43519;SDS011;46848;51.980;5.918;2022-07-22T03:14:30;7.05;;;3.63;;
43519;SDS011;46848;51.980;5.918;2022-07-22T03:16:56;10.02;;;3.42;;
43519;SDS011;46848;51.980;5.918;2022-07-22T03:19:21;7.60;;;3.28;;
43519;SDS011;46848;51.980;5.918;2022-07-22T03:21:47;8.48;;;4.00;;
43519;SDS011;46848;51.980;5.918;2022-07-22T03:24:12;9.52;;;3.53;;
43519;SDS011;46848;51.980;5.918;2022-07-22T03:26:38;5.95;;;2.75;;
43519;SDS011;46848;51.980;5.918;2022-07-22T03:29:04;6.88;;;2.65;;
43519;SDS011;46848;51.980;5.918;2022-07-22T03:31:29;4.38;;;2.30;;
43519;SDS011;46848;51.980;5.918;2022-07-22T03:33:55;7.10;;;2.42;;
43519;SDS011;46848;51.980;5.918;2022-07-22T03:36:21;5.78;;;2.30;;
43519;SDS011;46848;51.980;5.918;2022-07-22T03:38:46;7.70;;;2.75;;
43519;SDS011;46848;51.980;5.918;2022-07-22T03:41:12;7.78;;;2.72;;
43519;SDS011;46848;51.980;5.918;2022-07-22T03:43:37;7.30;;;2.80;;
43519;SDS011;46848;51.980;5.918;2022-07-22T03:46:03;6.25;;;2.80;;
43519;SDS011;46848;51.980;5.918;2022-07-22T03:48:29;4.82;;;2.00;;
43519;SDS011;46848;51.980;5.918;2022-07-22T03:50:54;5.90;;;2.33;;
43519;SDS011;46848;51.980;5.918;2022-07-22T03:53:20;5.45;;;2.42;;
43519;SDS011;46848;51.980;5.918;2022-07-22T03:55:46;6.55;;;1.90;;
43519;SDS011;46848;51.980;5.918;2022-07-22T03:58:11;7.22;;;2.30;;
43519;SDS011;46848;51.980;5.918;2022-07-22T04:00:37;7.72;;;2.13;;
43519;SDS011;46848;51.980;5.918;2022-07-22T04:03:03;3.88;;;1.83;;
43519;SDS011;46848;51.980;5.918;2022-07-22T04:05:28;7.88;;;2.17;;
43519;SDS011;46848;51.980;5.918;2022-07-22T04:07:54;4.57;;;2.40;;
43519;SDS011;46848;51.980;5.918;2022-07-22T04:10:19;5.18;;;2.20;;
43519;SDS011;46848;51.980;5.918;2022-07-22T04:12:45;7.05;;;2.40;;
43519;SDS011;46848;51.980;5.918;2022-07-22T04:15:11;6.43;;;2.75;;
43519;SDS011;46848;51.980;5.918;2022-07-22T04:17:37;6.18;;;2.03;;
43519;SDS011;46848;51.980;5.918;2022-07-22T04:20:03;6.53;;;2.67;;
43519;SDS011;46848;51.980;5.918;2022-07-22T04:22:29;7.38;;;2.33;;
43519;SDS011;46848;51.980;5.918;2022-07-22T04:24:55;6.18;;;2.25;;
43519;SDS011;46848;51.980;5.918;2022-07-22T04:27:21;5.57;;;2.25;;
43519;SDS011;46848;51.980;5.918;2022-07-22T04:29:47;7.47;;;2.00;;
43519;SDS011;46848;51.980;5.918;2022-07-22T04:32:12;4.32;;;1.90;;
43519;SDS011;46848;51.980;5.918;2022-07-22T04:34:38;8.60;;;2.65;;
43519;SDS011;46848;51.980;5.918;2022-07-22T04:37:04;5.43;;;2.08;;
43519;SDS011;46848;51.980;5.918;2022-07-22T04:39:29;5.50;;;2.20;;
43519;SDS011;46848;51.980;5.918;2022-07-22T04:41:55;6.38;;;2.40;;
43519;SDS011;46848;51.980;5.918;2022-07-22T04:44:21;7.00;;;2.13;;
43519;SDS011;46848;51.980;5.918;2022-07-22T04:46:46;5.75;;;2.40;;
43519;SDS011;46848;51.980;5.918;2022-07-22T04:49:12;3.97;;;1.83;;
43519;SDS011;46848;51.980;5.918;2022-07-22T04:51:38;5.28;;;2.05;;
43519;SDS011;46848;51.980;5.918;2022-07-22T04:54:04;4.97;;;2.05;;
43519;SDS011;46848;51.980;5.918;2022-07-22T04:56:30;5.50;;;1.90;;
43519;SDS011;46848;51.980;5.918;2022-07-22T04:58:55;5.22;;;1.63;;
43519;SDS011;46848;51.980;5.918;2022-07-22T05:01:21;6.70;;;1.80;;
43519;SDS011;46848;51.980;5.918;2022-07-22T05:03:46;3.33;;;1.35;;
43519;SDS011;46848;51.980;5.918;2022-07-22T05:06:12;6.45;;;1.63;;
43519;SDS011;46848;51.980;5.918;2022-07-22T05:08:38;3.90;;;1.80;;
43519;SDS011;46848;51.980;5.918;2022-07-22T05:11:04;4.97;;;1.48;;
43519;SDS011;46848;51.980;5.918;2022-07-22T05:13:29;4.40;;;1.48;;
43519;SDS011;46848;51.980;5.918;2022-07-22T05:15:55;4.90;;;1.42;;
43519;SDS011;46848;51.980;5.918;2022-07-22T05:18:21;3.53;;;1.45;;
43519;SDS011;46848;51.980;5.918;2022-07-22T05:20:48;5.47;;;1.33;;
43519;SDS011;46848;51.980;5.918;2022-07-22T05:23:13;4.55;;;1.50;;
43519;SDS011;46848;51.980;5.918;2022-07-22T05:25:39;4.28;;;1.17;;
43519;SDS011;46848;51.980;5.918;2022-07-22T05:28:05;6.95;;;1.90;;
43519;SDS011;46848;51.980;5.918;2022-07-22T05:30:30;6.10;;;1.35;;
43519;SDS011;46848;51.980;5.918;2022-07-22T05:32:56;4.15;;;1.40;;
43519;SDS011;46848;51.980;5.918;2022-07-22T05:35:22;4.18;;;1.30;;
43519;SDS011;46848;51.980;5.918;2022-07-22T05:37:47;5.05;;;1.30;;
43519;SDS011;46848;51.980;5.918;2022-07-22T05:40:13;2.95;;;1.27;;
43519;SDS011;46848;51.980;5.918;2022-07-22T05:42:39;2.78;;;0.90;;
43519;SDS011;46848;51.980;5.918;2022-07-22T05:45:05;4.72;;;1.00;;
43519;SDS011;46848;51.980;5.918;2022-07-22T05:47:31;7.25;;;1.38;;
43519;SDS011;46848;51.980;5.918;2022-07-22T05:49:56;2.88;;;1.45;;
43519;SDS011;46848;51.980;5.918;2022-07-22T05:52:22;4.57;;;1.50;;
43519;SDS011;46848;51.980;5.918;2022-07-22T05:54:48;5.40;;;1.30;;
43519;SDS011;46848;51.980;5.918;2022-07-22T05:57:13;5.32;;;1.30;;
43519;SDS011;46848;51.980;5.918;2022-07-22T05:59:39;4.72;;;1.40;;
43519;SDS011;46848;51.980;5.918;2022-07-22T06:02:05;4.55;;;1.48;;
43519;SDS011;46848;51.980;5.918;2022-07-22T06:04:31;4.50;;;1.20;;
43519;SDS011;46848;51.980;5.918;2022-07-22T06:06:57;6.88;;;1.38;;
43519;SDS011;46848;51.980;5.918;2022-07-22T06:09:22;4.30;;;1.17;;
43519;SDS011;46848;51.980;5.918;2022-07-22T06:11:48;5.53;;;1.08;;
43519;SDS011;46848;51.980;5.918;2022-07-22T06:14:14;4.28;;;1.17;;
43519;SDS011;46848;51.980;5.918;2022-07-22T06:16:39;6.57;;;0.98;;
43519;SDS011;46848;51.980;5.918;2022-07-22T06:19:05;4.65;;;1.13;;
43519;SDS011;46848;51.980;5.918;2022-07-22T06:21:30;5.93;;;1.30;;
43519;SDS011;46848;51.980;5.918;2022-07-22T06:23:57;3.42;;;1.00;;
43519;SDS011;46848;51.980;5.918;2022-07-22T06:26:22;6.03;;;1.30;;
43519;SDS011;46848;51.980;5.918;2022-07-22T06:28:48;2.25;;;0.90;;
43519;SDS011;46848;51.980;5.918;2022-07-22T06:31:13;4.15;;;0.93;;
43519;SDS011;46848;51.980;5.918;2022-07-22T06:33:39;4.32;;;0.85;;
43519;SDS011;46848;51.980;5.918;2022-07-22T06:36:05;4.43;;;1.00;;
43519;SDS011;46848;51.980;5.918;2022-07-22T06:38:31;5.93;;;2.08;;
43519;SDS011;46848;51.980;5.918;2022-07-22T06:40:57;5.70;;;1.30;;
43519;SDS011;46848;51.980;5.918;2022-07-22T06:43:22;5.40;;;1.38;;
43519;SDS011;46848;51.980;5.918;2022-07-22T06:45:48;6.80;;;1.40;;
43519;SDS011;46848;51.980;5.918;2022-07-22T06:48:13;6.68;;;1.67;;
43519;SDS011;46848;51.980;5.918;2022-07-22T06:50:39;3.33;;;1.20;;
43519;SDS011;46848;51.980;5.918;2022-07-22T06:53:05;4.53;;;1.35;;
43519;SDS011;46848;51.980;5.918;2022-07-22T06:55:30;6.05;;;1.55;;
43519;SDS011;46848;51.980;5.918;2022-07-22T06:57:57;4.55;;;1.45;;
43519;SDS011;46848;51.980;5.918;2022-07-22T07:00:23;5.95;;;1.10;;
43519;SDS011;46848;51.980;5.918;2022-07-22T07:02:48;3.63;;;1.02;;
43519;SDS011;46848;51.980;5.918;2022-07-22T07:05:14;4.13;;;1.38;;
43519;SDS011;46848;51.980;5.918;2022-07-22T07:07:40;6.55;;;1.30;;
43519;SDS011;46848;51.980;5.918;2022-07-22T07:10:06;5.72;;;1.20;;
43519;SDS011;46848;51.980;5.918;2022-07-22T07:12:34;2.22;;;0.82;;
43519;SDS011;46848;51.980;5.918;2022-07-22T07:15:00;5.63;;;1.88;;
43519;SDS011;46848;51.980;5.918;2022-07-22T07:17:26;3.53;;;0.90;;
43519;SDS011;46848;51.980;5.918;2022-07-22T07:19:51;4.88;;;1.00;;
43519;SDS011;46848;51.980;5.918;2022-07-22T07:22:17;3.88;;;1.50;;
43519;SDS011;46848;51.980;5.918;2022-07-22T07:24:42;8.45;;;1.45;;
43519;SDS011;46848;51.980;5.918;2022-07-22T07:27:08;7.32;;;1.23;;
43519;SDS011;46848;51.980;5.918;2022-07-22T07:29:34;3.55;;;0.98;;
43519;SDS011;46848;51.980;5.918;2022-07-22T07:32:00;4.70;;;0.98;;
43519;SDS011;46848;51.980;5.918;2022-07-22T07:34:25;5.22;;;1.25;;
43519;SDS011;46848;51.980;5.918;2022-07-22T07:36:51;4.13;;;1.23;;
43519;SDS011;46848;51.980;5.918;2022-07-22T07:39:16;4.60;;;1.13;;
43519;SDS011;46848;51.980;5.918;2022-07-22T07:41:42;3.33;;;1.02;;
43519;SDS011;46848;51.980;5.918;2022-07-22T07:44:08;4.15;;;0.98;;
43519;SDS011;46848;51.980;5.918;2022-07-22T07:46:33;5.75;;;1.20;;
43519;SDS011;46848;51.980;5.918;2022-07-22T07:48:59;2.47;;;1.10;;
43519;SDS011;46848;51.980;5.918;2022-07-22T07:51:24;6.25;;;1.38;;
43519;SDS011;46848;51.980;5.918;2022-07-22T07:53:50;3.40;;;1.02;;
43519;SDS011;46848;51.980;5.918;2022-07-22T07:56:16;5.55;;;1.35;;
43519;SDS011;46848;51.980;5.918;2022-07-22T07:58:41;3.35;;;1.10;;
43519;SDS011;46848;51.980;5.918;2022-07-22T08:01:07;4.55;;;1.48;;
43519;SDS011;46848;51.980;5.918;2022-07-22T08:03:33;2.92;;;1.35;;
43519;SDS011;46848;51.980;5.918;2022-07-22T08:05:59;5.40;;;1.50;;
43519;SDS011;46848;51.980;5.918;2022-07-22T08:08:25;6.30;;;1.90;;
43519;SDS011;46848;51.980;5.918;2022-07-22T08:10:51;4.82;;;1.23;;
43519;SDS011;46848;51.980;5.918;2022-07-22T08:13:18;3.83;;;1.42;;
43519;SDS011;46848;51.980;5.918;2022-07-22T08:15:44;6.10;;;1.60;;
43519;SDS011;46848;51.980;5.918;2022-07-22T08:18:09;5.25;;;1.42;;
43519;SDS011;46848;51.980;5.918;2022-07-22T08:20:35;4.55;;;1.00;;
43519;SDS011;46848;51.980;5.918;2022-07-22T08:23:00;3.60;;;1.20;;
43519;SDS011;46848;51.980;5.918;2022-07-22T08:25:26;4.75;;;1.27;;
43519;SDS011;46848;51.980;5.918;2022-07-22T08:27:52;4.05;;;1.25;;
43519;SDS011;46848;51.980;5.918;2022-07-22T08:30:18;2.28;;;1.00;;
43519;SDS011;46848;51.980;5.918;2022-07-22T08:32:45;3.33;;;1.10;;
43519;SDS011;46848;51.980;5.918;2022-07-22T08:35:11;3.38;;;0.95;;
43519;SDS011;46848;51.980;5.918;2022-07-22T08:37:37;7.03;;;1.02;;
43519;SDS011;46848;51.980;5.918;2022-07-22T08:40:03;5.05;;;1.25;;
43519;SDS011;46848;51.980;5.918;2022-07-22T08:42:31;4.07;;;0.98;;
43519;SDS011;46848;51.980;5.918;2022-07-22T08:45:01;4.13;;;1.23;;
43519;SDS011;46848;51.980;5.918;2022-07-22T08:47:27;3.58;;;1.30;;
43519;SDS011;46848;51.980;5.918;2022-07-22T08:49:53;6.05;;;1.30;;
43519;SDS011;46848;51.980;5.918;2022-07-22T08:52:19;2.85;;;1.05;;
43519;SDS011;46848;51.980;5.918;2022-07-22T08:54:44;2.92;;;1.08;;
43519;SDS011;46848;51.980;5.918;2022-07-22T08:57:10;5.43;;;1.10;;
43519;SDS011;46848;51.980;5.918;2022-07-22T09:02:39;5.85;;;1.48;;
43519;SDS011;46848;51.980;5.918;2022-07-22T09:05:06;4.43;;;1.50;;
43519;SDS011;46848;51.980;5.918;2022-07-22T09:07:35;3.58;;;1.30;;
43519;SDS011;46848;51.980;5.918;2022-07-22T09:10:04;5.35;;;1.27;;
43519;SDS011;46848;51.980;5.918;2022-07-22T09:12:34;3.00;;;1.17;;
43519;SDS011;46848;51.980;5.918;2022-07-22T09:15:14;3.63;;;1.08;;
43519;SDS011;46848;51.980;5.918;2022-07-22T09:17:40;5.03;;;1.55;;
43519;SDS011;46848;51.980;5.918;2022-07-22T09:20:23;4.03;;;1.10;;
43519;SDS011;46848;51.980;5.918;2022-07-22T09:22:50;3.28;;;0.95;;
43519;SDS011;46848;51.980;5.918;2022-07-22T09:27:49;5.38;;;1.13;;
43519;SDS011;46848;51.980;5.918;2022-07-22T09:30:24;4.07;;;1.10;;
43519;SDS011;46848;51.980;5.918;2022-07-22T09:32:52;4.65;;;1.20;;
43519;SDS011;46848;51.980;5.918;2022-07-22T09:35:19;6.15;;;1.38;;
43519;SDS011;46848;51.980;5.918;2022-07-22T09:38:02;4.22;;;1.02;;
43519;SDS011;46848;51.980;5.918;2022-07-22T09:40:31;3.75;;;1.00;;
43519;SDS011;46848;51.980;5.918;2022-07-22T09:43:00;4.43;;;0.80;;
43519;SDS011;46848;51.980;5.918;2022-07-22T09:45:29;4.35;;;1.20;;
43519;SDS011;46848;51.980;5.918;2022-07-22T09:47:57;4.20;;;1.08;;
43519;SDS011;46848;51.980;5.918;2022-07-22T09:50:31;3.65;;;1.08;;
43519;SDS011;46848;51.980;5.918;2022-07-22T09:52:58;2.13;;;0.73;;
43519;SDS011;46848;51.980;5.918;2022-07-22T09:55:25;3.58;;;1.08;;
43519;SDS011;46848;51.980;5.918;2022-07-22T09:57:52;3.60;;;0.90;;
43519;SDS011;46848;51.980;5.918;2022-07-22T10:00:21;3.45;;;1.00;;
43519;SDS011;46848;51.980;5.918;2022-07-22T10:02:50;2.65;;;0.90;;
43519;SDS011;46848;51.980;5.918;2022-07-22T10:05:23;4.70;;;1.10;;
43519;SDS011;46848;51.980;5.918;2022-07-22T10:07:54;4.85;;;0.82;;
43519;SDS011;46848;51.980;5.918;2022-07-22T10:10:21;3.40;;;0.82;;
43519;SDS011;46848;51.980;5.918;2022-07-22T10:12:49;4.45;;;1.10;;
43519;SDS011;46848;51.980;5.918;2022-07-22T10:15:17;2.38;;;0.82;;
43519;SDS011;46848;51.980;5.918;2022-07-22T10:17:44;2.85;;;1.13;;
43519;SDS011;46848;51.980;5.918;2022-07-22T10:20:21;5.70;;;1.40;;
43519;SDS011;46848;51.980;5.918;2022-07-22T10:22:52;2.05;;;0.90;;
43519;SDS011;46848;51.980;5.918;2022-07-22T10:25:20;2.92;;;1.02;;
43519;SDS011;46848;51.980;5.918;2022-07-22T10:27:50;3.08;;;0.68;;
43519;SDS011;46848;51.980;5.918;2022-07-22T10:30:21;4.32;;;1.15;;
43519;SDS011;46848;51.980;5.918;2022-07-22T10:33:01;3.72;;;0.90;;
43519;SDS011;46848;51.980;5.918;2022-07-22T10:35:27;2.63;;;0.80;;
43519;SDS011;46848;51.980;5.918;2022-07-22T10:37:55;3.22;;;0.90;;
43519;SDS011;46848;51.980;5.918;2022-07-22T10:40:23;3.95;;;0.80;;
43519;SDS011;46848;51.980;5.918;2022-07-22T10:45:25;3.67;;;0.80;;
43519;SDS011;46848;51.980;5.918;2022-07-22T10:47:55;2.28;;;0.65;;
43519;SDS011;46848;51.980;5.918;2022-07-22T10:53:09;3.92;;;1.00;;
43519;SDS011;46848;51.980;5.918;2022-07-22T10:55:59;5.32;;;1.13;;
43519;SDS011;46848;51.980;5.918;2022-07-22T11:00:59;4.32;;;1.10;;
43519;SDS011;46848;51.980;5.918;2022-07-22T11:03:26;2.25;;;0.90;;
43519;SDS011;46848;51.980;5.918;2022-07-22T11:05:54;2.50;;;1.00;;
43519;SDS011;46848;51.980;5.918;2022-07-22T11:08:21;2.65;;;1.05;;
43519;SDS011;46848;51.980;5.918;2022-07-22T11:10:48;1.30;;;0.60;;
43519;SDS011;46848;51.980;5.918;2022-07-22T11:13:33;3.65;;;0.77;;
43519;SDS011;46848;51.980;5.918;2022-07-22T11:18:59;3.72;;;0.95;;
43519;SDS011;46848;51.980;5.918;2022-07-22T11:21:27;2.65;;;0.70;;
43519;SDS011;46848;51.980;5.918;2022-07-22T11:23:56;5.25;;;1.20;;
43519;SDS011;46848;51.980;5.918;2022-07-22T11:29:04;1.83;;;0.80;;
43519;SDS011;46848;51.980;5.918;2022-07-22T11:31:30;2.17;;;0.75;;
43519;SDS011;46848;51.980;5.918;2022-07-22T11:36:33;2.08;;;0.77;;
43519;SDS011;46848;51.980;5.918;2022-07-22T11:39:00;3.25;;;1.20;;
43519;SDS011;46848;51.980;5.918;2022-07-22T11:41:27;2.67;;;0.70;;
43519;SDS011;46848;51.980;5.918;2022-07-22T11:43:54;2.33;;;0.80;;
43519;SDS011;46848;51.980;5.918;2022-07-22T11:46:20;4.90;;;0.95;;
43519;SDS011;46848;51.980;5.918;2022-07-22T11:48:45;1.52;;;0.63;;
43519;SDS011;46848;51.980;5.918;2022-07-22T11:51:12;4.13;;;0.80;;
43519;SDS011;46848;51.980;5.918;2022-07-22T11:53:39;2.65;;;0.90;;
43519;SDS011;46848;51.980;5.918;2022-07-22T11:56:06;3.83;;;0.70;;
43519;SDS011;46848;51.980;5.918;2022-07-22T11:58:42;3.60;;;1.02;;
43519;SDS011;46848;51.980;5.918;2022-07-22T12:01:11;2.20;;;0.80;;
43519;SDS011;46848;51.980;5.918;2022-07-22T12:03:39;3.58;;;0.88;;
43519;SDS011;46848;51.980;5.918;2022-07-22T12:06:07;2.47;;;0.75;;
43519;SDS011;46848;51.980;5.918;2022-07-22T12:08:38;3.20;;;0.80;;
43519;SDS011;46848;51.980;5.918;2022-07-22T12:11:07;2.35;;;0.80;;
43519;SDS011;46848;51.980;5.918;2022-07-22T12:13:35;4.25;;;1.05;;
43519;SDS011;46848;51.980;5.918;2022-07-22T12:16:07;2.88;;;1.13;;
43519;SDS011;46848;51.980;5.918;2022-07-22T12:21:08;4.55;;;0.90;;
43519;SDS011;46848;51.980;5.918;2022-07-22T12:23:33;4.80;;;1.23;;
43519;SDS011;46848;51.980;5.918;2022-07-22T12:26:05;5.47;;;1.15;;
43519;SDS011;46848;51.980;5.918;2022-07-22T12:28:31;3.92;;;1.83;;
43519;SDS011;46848;51.980;5.918;2022-07-22T12:30:56;2.50;;;1.00;;
43519;SDS011;46848;51.980;5.918;2022-07-22T12:33:22;3.15;;;1.00;;
43519;SDS011;46848;51.980;5.918;2022-07-22T12:36:08;3.75;;;1.67;;
43519;SDS011;46848;51.980;5.918;2022-07-22T12:38:34;4.60;;;1.50;;
43519;SDS011;46848;51.980;5.918;2022-07-22T12:43:46;1.95;;;0.82;;
43519;SDS011;46848;51.980;5.918;2022-07-22T12:46:14;3.10;;;1.10;;
43519;SDS011;46848;51.980;5.918;2022-07-22T12:48:48;3.72;;;1.05;;
43519;SDS011;46848;51.980;5.918;2022-07-22T12:51:17;2.60;;;0.80;;
43519;SDS011;46848;51.980;5.918;2022-07-22T12:53:43;3.00;;;1.00;;
43519;SDS011;46848;51.980;5.918;2022-07-22T12:56:09;3.33;;;1.10;;
43519;SDS011;46848;51.980;5.918;2022-07-22T12:58:36;2.65;;;0.70;;
43519;SDS011;46848;51.980;5.918;2022-07-22T13:01:05;1.80;;;0.70;;
43519;SDS011;46848;51.980;5.918;2022-07-22T13:03:30;2.10;;;0.80;;
43519;SDS011;46848;51.980;5.918;2022-07-22T13:05:58;5.28;;;0.85;;
43519;SDS011;46848;51.980;5.918;2022-07-22T13:08:26;3.97;;;0.95;;
43519;SDS011;46848;51.980;5.918;2022-07-22T13:10:52;2.25;;;0.70;;
43519;SDS011;46848;51.980;5.918;2022-07-22T13:13:19;1.92;;;0.80;;
43519;SDS011;46848;51.980;5.918;2022-07-22T13:15:45;2.17;;;0.95;;
43519;SDS011;46848;51.980;5.918;2022-07-22T13:18:11;2.50;;;0.90;;
43519;SDS011;46848;51.980;5.918;2022-07-22T13:20:37;2.78;;;1.08;;
43519;SDS011;46848;51.980;5.918;2022-07-22T13:23:03;2.40;;;1.10;;
43519;SDS011;46848;51.980;5.918;2022-07-22T13:25:29;3.30;;;0.77;;
43519;SDS011;46848;51.980;5.918;2022-07-22T13:27:55;2.35;;;0.70;;
43519;SDS011;46848;51.980;5.918;2022-07-22T13:30:22;3.20;;;0.88;;
43519;SDS011;46848;51.980;5.918;2022-07-22T13:32:47;5.78;;;1.00;;
43519;SDS011;46848;51.980;5.918;2022-07-22T13:35:13;2.63;;;0.98;;
43519;SDS011;46848;51.980;5.918;2022-07-22T13:37:39;2.88;;;1.00;;
43519;SDS011;46848;51.980;5.918;2022-07-22T13:40:05;3.53;;;1.13;;
43519;SDS011;46848;51.980;5.918;2022-07-22T13:42:31;2.83;;;0.88;;
43519;SDS011;46848;51.980;5.918;2022-07-22T13:44:57;3.90;;;1.25;;
43519;SDS011;46848;51.980;5.918;2022-07-22T13:47:23;2.72;;;1.35;;
43519;SDS011;46848;51.980;5.918;2022-07-22T13:49:51;4.43;;;1.38;;
43519;SDS011;46848;51.980;5.918;2022-07-22T13:52:16;3.22;;;1.08;;
43519;SDS011;46848;51.980;5.918;2022-07-22T13:54:43;2.55;;;0.80;;
43519;SDS011;46848;51.980;5.918;2022-07-22T13:57:10;2.92;;;1.05;;
43519;SDS011;46848;51.980;5.918;2022-07-22T13:59:36;2.97;;;1.35;;
43519;SDS011;46848;51.980;5.918;2022-07-22T14:02:02;2.97;;;1.10;;
43519;SDS011;46848;51.980;5.918;2022-07-22T14:04:29;4.85;;;1.00;;
43519;SDS011;46848;51.980;5.918;2022-07-22T14:06:54;3.88;;;1.60;;
43519;SDS011;46848;51.980;5.918;2022-07-22T14:09:20;4.35;;;1.55;;
43519;SDS011;46848;51.980;5.918;2022-07-22T14:11:46;4.22;;;1.42;;
43519;SDS011;46848;51.980;5.918;2022-07-22T14:14:12;4.22;;;1.30;;
43519;SDS011;46848;51.980;5.918;2022-07-22T14:16:38;2.60;;;1.23;;
43519;SDS011;46848;51.980;5.918;2022-07-22T14:19:11;3.45;;;1.40;;
43519;SDS011;46848;51.980;5.918;2022-07-22T14:21:39;2.30;;;1.15;;
43519;SDS011;46848;51.980;5.918;2022-07-22T14:24:07;4.03;;;1.27;;
43519;SDS011;46848;51.980;5.918;2022-07-22T14:26:34;4.72;;;1.38;;
43519;SDS011;46848;51.980;5.918;2022-07-22T14:29:00;4.32;;;1.48;;
43519;SDS011;46848;51.980;5.918;2022-07-22T14:31:26;4.57;;;1.17;;
43519;SDS011;46848;51.980;5.918;2022-07-22T14:33:52;3.40;;;1.05;;
43519;SDS011;46848;51.980;5.918;2022-07-22T14:36:19;2.58;;;0.93;;
43519;SDS011;46848;51.980;5.918;2022-07-22T14:38:44;3.72;;;1.23;;
43519;SDS011;46848;51.980;5.918;2022-07-22T14:41:10;6.18;;;1.52;;
43519;SDS011;46848;51.980;5.918;2022-07-22T14:43:36;5.68;;;1.40;;
43519;SDS011;46848;51.980;5.918;2022-07-22T14:46:02;7.07;;;1.83;;
43519;SDS011;46848;51.980;5.918;2022-07-22T14:48:29;8.93;;;1.88;;
43519;SDS011;46848;51.980;5.918;2022-07-22T14:50:56;4.63;;;1.40;;
43519;SDS011;46848;51.980;5.918;2022-07-22T14:53:22;5.45;;;1.70;;
43519;SDS011;46848;51.980;5.918;2022-07-22T14:55:48;3.28;;;1.50;;
43519;SDS011;46848;51.980;5.918;2022-07-22T14:58:14;5.18;;;1.23;;
43519;SDS011;46848;51.980;5.918;2022-07-22T15:00:40;4.93;;;1.33;;
43519;SDS011;46848;51.980;5.918;2022-07-22T15:03:06;3.03;;;1.13;;
43519;SDS011;46848;51.980;5.918;2022-07-22T15:05:31;4.18;;;1.60;;
43519;SDS011;46848;51.980;5.918;2022-07-22T15:07:57;3.83;;;1.63;;
43519;SDS011;46848;51.980;5.918;2022-07-22T15:10:23;4.15;;;1.58;;
43519;SDS011;46848;51.980;5.918;2022-07-22T15:12:48;4.03;;;1.27;;